createdAt,value
2018-04-19T00:00:31.588Z,7.93
2018-04-19T00:01:31.586Z,7.95
2018-04-19T00:02:31.822Z,7.96
2018-04-19T00:03:31.554Z,7.93
2018-04-19T00:04:31.810Z,7.92
2018-04-19T00:05:31.788Z,8.03
2018-04-19T00:06:31.527Z,7.96
2018-04-19T00:07:31.768Z,7.95
2018-04-19T00:08:31.759Z,7.95
2018-04-19T00:09:31.748Z,7.88
2018-04-19T00:10:31.221Z,7.78
2018-04-19T00:11:31.725Z,7.83
2018-04-19T00:12:31.455Z,7.75
2018-04-19T00:13:31.711Z,7.83
2018-04-19T00:14:31.433Z,7.73
2018-04-19T00:15:31.683Z,7.67
2018-04-19T00:16:31.157Z,7.67
2018-04-19T00:17:31.659Z,7.61
2018-04-19T00:18:31.393Z,7.54
2018-04-19T00:19:31.379Z,7.58
2018-04-19T00:20:31.636Z,7.56
2018-04-19T00:21:31.612Z,7.49
2018-04-19T00:22:31.603Z,7.49
2018-04-19T00:23:31.337Z,7.55
2018-04-19T00:24:31.582Z,7.47
2018-04-19T00:25:31.311Z,7.48
2018-04-19T00:26:31.567Z,7.49
2018-04-19T00:27:31.546Z,7.4
2018-04-19T00:28:31.285Z,7.33
2018-04-19T00:29:31.525Z,7.39
2018-04-19T00:30:31.257Z,7.33
2018-04-19T00:31:31.503Z,7.34
2018-04-19T00:32:31.490Z,7.3
2018-04-19T00:33:31.221Z,7.23
2018-04-19T00:34:31.262Z,7.19
2018-04-19T00:35:31.463Z,7.19
2018-04-19T00:36:31.186Z,7.19
2018-04-19T00:37:31.443Z,7.22
2018-04-19T00:38:31.426Z,7.15
2018-04-19T00:39:30.898Z,7.16
2018-04-19T00:40:31.397Z,7.16
2018-04-19T00:41:31.392Z,7.09
2018-04-19T00:42:31.378Z,7.13
2018-04-19T00:43:31.109Z,7.13
2018-04-19T00:44:31.097Z,7.16
2018-04-19T00:45:31.090Z,6.95
2018-04-19T00:46:30.814Z,7.05
2018-04-19T00:47:31.317Z,7
2018-04-19T00:48:31.310Z,7
2018-04-19T00:49:30.782Z,7
2018-04-19T00:50:31.289Z,7
2018-04-19T00:51:31.273Z,7
2018-04-19T00:52:31.006Z,6.98
2018-04-19T00:53:31.248Z,6.91
2018-04-19T00:54:30.980Z,6.88
2018-04-19T00:55:30.970Z,6.83
2018-04-19T00:56:30.957Z,6.85
2018-04-19T00:57:31.203Z,6.76
2018-04-19T00:58:30.937Z,6.8
2018-04-19T00:59:30.928Z,6.86
2018-04-19T01:00:31.174Z,6.72
2018-04-19T01:01:31.158Z,6.65
2018-04-19T01:02:30.887Z,6.68
2018-04-19T01:03:30.622Z,6.67
2018-04-19T01:04:31.121Z,6.67
2018-04-19T01:05:30.851Z,6.67
2018-04-19T01:06:31.094Z,6.67
2018-04-19T01:07:31.088Z,6.7
2018-04-19T01:08:30.867Z,6.67
2018-04-19T01:09:30.810Z,6.64
2018-04-19T01:10:30.792Z,6.58
2018-04-19T01:11:31.037Z,6.7
2018-04-19T01:12:30.766Z,6.62
2018-04-19T01:13:30.766Z,6.68
2018-04-19T01:14:31.010Z,6.68
2018-04-19T01:15:30.734Z,6.73
2018-04-19T01:16:30.979Z,6.76
2018-04-19T01:17:30.972Z,6.75
2018-04-19T01:18:30.702Z,6.72
2018-04-19T01:19:30.682Z,6.79
2018-04-19T01:20:30.675Z,6.79
2018-04-19T01:21:30.662Z,6.72
2018-04-19T01:22:30.910Z,6.78
2018-04-19T01:23:30.638Z,6.88
2018-04-19T01:24:30.889Z,6.85
2018-04-19T01:25:30.868Z,6.86
2018-04-19T01:26:30.601Z,6.91
2018-04-19T01:27:30.849Z,6.86
2018-04-19T01:28:30.838Z,7.03
2018-04-19T01:29:30.825Z,6.98
2018-04-19T01:30:30.812Z,6.95
2018-04-19T01:31:30.803Z,7.08
2018-04-19T01:32:30.528Z,7.08
2018-04-19T01:33:30.791Z,7.08
2018-04-19T01:34:30.246Z,7.08
2018-04-19T01:35:30.493Z,7.13
2018-04-19T01:36:30.739Z,7.09
2018-04-19T01:37:30.728Z,7.16
2018-04-19T01:38:30.826Z,7.03
2018-04-19T01:39:30.751Z,7.12
2018-04-19T01:40:30.696Z,7.08
2018-04-19T01:41:30.426Z,7.05
2018-04-19T01:42:30.409Z,7.09
2018-04-19T01:43:30.395Z,7
2018-04-19T01:44:30.385Z,7.09
2018-04-19T01:45:30.371Z,7
2018-04-19T01:46:30.102Z,6.97
2018-04-19T01:47:30.352Z,6.95
2018-04-19T01:48:30.593Z,6.85
2018-04-19T01:49:30.325Z,6.9
2018-04-19T01:50:30.061Z,6.85
2018-04-19T01:51:30.297Z,6.8
2018-04-19T01:52:30.551Z,6.85
2018-04-19T01:53:30.535Z,6.76
2018-04-19T01:54:30.265Z,6.75
2018-04-19T01:55:30.249Z,6.7
2018-04-19T01:56:30.240Z,6.65
2018-04-19T01:57:30.229Z,6.72
2018-04-19T01:58:30.473Z,6.72
2018-04-19T01:59:30.202Z,6.7
2018-04-19T02:00:30.446Z,6.75
2018-04-19T02:01:30.438Z,6.76
2018-04-19T02:02:30.421Z,6.75
2018-04-19T02:03:30.423Z,6.85
2018-04-19T02:04:30.434Z,6.85
2018-04-19T02:05:30.390Z,6.82
2018-04-19T02:06:30.373Z,6.86
2018-04-19T02:07:30.105Z,6.76
2018-04-19T02:08:30.355Z,6.7
2018-04-19T02:09:30.081Z,6.65
2018-04-19T02:10:30.072Z,6.65
2018-04-19T02:11:29.797Z,6.62
2018-04-19T02:12:30.303Z,6.54
2018-04-19T02:13:30.288Z,6.55
2018-04-19T02:14:30.069Z,6.52
2018-04-19T02:15:30.008Z,6.47
2018-04-19T02:16:30.251Z,6.54
2018-04-19T02:17:30.242Z,6.49
2018-04-19T02:18:29.968Z,6.4
2018-04-19T02:19:30.263Z,6.49
2018-04-19T02:20:30.203Z,6.47
2018-04-19T02:21:29.677Z,6.47
2018-04-19T02:22:29.918Z,6.42
2018-04-19T02:23:30.164Z,6.39
2018-04-19T02:24:29.898Z,6.4
2018-04-19T02:25:30.140Z,6.39
2018-04-19T02:26:29.873Z,6.39
2018-04-19T02:27:29.603Z,6.34
2018-04-19T02:28:29.851Z,6.34
2018-04-19T02:29:30.092Z,6.36
2018-04-19T02:30:30.094Z,6.29
2018-04-19T02:31:29.815Z,6.26
2018-04-19T02:32:30.057Z,6.34
2018-04-19T02:33:30.050Z,6.34
2018-04-19T02:34:30.036Z,6.26
2018-04-19T02:35:30.024Z,6.25
2018-04-19T02:36:30.018Z,6.34
2018-04-19T02:37:30.008Z,6.28
2018-04-19T02:38:29.988Z,6.36
2018-04-19T02:39:29.995Z,6.4
2018-04-19T02:40:29.974Z,6.51
2018-04-19T02:41:29.951Z,6.51
2018-04-19T02:42:29.708Z,6.52
2018-04-19T02:43:29.925Z,6.49
2018-04-19T02:44:29.658Z,6.51
2018-04-19T02:45:29.904Z,6.58
2018-04-19T02:46:29.626Z,6.55
2018-04-19T02:47:29.613Z,6.6
2018-04-19T02:48:29.864Z,6.62
2018-04-19T02:49:29.591Z,6.64
2018-04-19T02:50:29.964Z,6.79
2018-04-19T02:51:29.562Z,6.68
2018-04-19T02:52:29.561Z,6.76
2018-04-19T02:53:29.800Z,6.72
2018-04-19T02:54:29.831Z,6.79
2018-04-19T02:55:29.566Z,6.76
2018-04-19T02:56:29.760Z,6.86
2018-04-19T02:57:29.775Z,6.85
2018-04-19T02:58:29.739Z,6.86
2018-04-19T02:59:29.727Z,6.88
2018-04-19T03:00:29.713Z,6.85
2018-04-19T03:01:29.440Z,6.95
2018-04-19T03:02:29.423Z,6.98
2018-04-19T03:03:29.673Z,6.97
2018-04-19T03:04:29.409Z,7
2018-04-19T03:05:29.651Z,6.9
2018-04-19T03:06:29.649Z,6.95
2018-04-19T03:07:29.381Z,6.98
2018-04-19T03:08:29.619Z,6.94
2018-04-19T03:09:29.599Z,6.83
2018-04-19T03:10:29.585Z,6.85
2018-04-19T03:11:29.056Z,6.86
2018-04-19T03:12:29.704Z,6.75
2018-04-19T03:13:29.548Z,6.83
2018-04-19T03:14:29.283Z,6.76
2018-04-19T03:15:29.263Z,6.61
2018-04-19T03:16:29.518Z,6.57
2018-04-19T03:17:29.248Z,6.64
2018-04-19T03:18:29.485Z,6.58
2018-04-19T03:19:28.960Z,6.47
2018-04-19T03:20:29.561Z,6.52
2018-04-19T03:21:29.447Z,6.46
2018-04-19T03:22:29.434Z,6.52
2018-04-19T03:23:29.429Z,6.57
2018-04-19T03:24:29.155Z,6.51
2018-04-19T03:25:29.396Z,6.57
2018-04-19T03:26:29.392Z,6.55
2018-04-19T03:27:29.117Z,6.55
2018-04-19T03:28:29.379Z,6.54
2018-04-19T03:29:29.353Z,6.7
2018-04-19T03:30:29.339Z,6.65
2018-04-19T03:31:29.360Z,6.67
2018-04-19T03:32:29.313Z,6.75
2018-04-19T03:33:29.302Z,6.8
2018-04-19T03:34:28.773Z,6.79
2018-04-19T03:35:29.089Z,6.8
2018-04-19T03:36:29.019Z,6.79
2018-04-19T03:37:29.250Z,6.79
2018-04-19T03:38:29.241Z,6.79
2018-04-19T03:39:28.967Z,6.88
2018-04-19T03:40:28.959Z,6.91
2018-04-19T03:41:28.944Z,6.86
2018-04-19T03:42:28.677Z,6.9
2018-04-19T03:43:29.180Z,6.88
2018-04-19T03:44:28.935Z,6.88
2018-04-19T03:45:29.156Z,7.04
2018-04-19T03:46:29.140Z,7.03
2018-04-19T03:47:29.129Z,7.13
2018-04-19T03:48:29.143Z,7.16
2018-04-19T03:49:29.117Z,7.22
2018-04-19T03:50:29.095Z,7.27
2018-04-19T03:51:28.824Z,7.31
2018-04-19T03:52:29.069Z,7.37
2018-04-19T03:53:28.542Z,7.39
2018-04-19T03:54:29.046Z,7.37
2018-04-19T03:55:29.037Z,7.37
2018-04-19T03:56:28.761Z,7.4
2018-04-19T03:57:28.750Z,7.45
2018-04-19T03:58:28.996Z,7.44
2018-04-19T03:59:28.726Z,7.51
2018-04-19T04:00:28.978Z,7.51
2018-04-19T04:01:28.721Z,7.49
2018-04-19T04:02:28.950Z,7.63
2018-04-19T04:03:28.937Z,7.59
2018-04-19T04:04:28.666Z,7.58
2018-04-19T04:05:28.912Z,7.7
2018-04-19T04:06:28.646Z,7.78
2018-04-19T04:07:28.886Z,7.78
2018-04-19T04:08:28.618Z,7.78
2018-04-19T04:09:28.607Z,7.8
2018-04-19T04:10:28.336Z,7.83
2018-04-19T04:11:28.841Z,7.86
2018-04-19T04:12:28.824Z,7.86
2018-04-19T04:13:28.819Z,7.83
2018-04-19T04:14:28.556Z,7.95
2018-04-19T04:15:28.792Z,7.93
2018-04-19T04:16:28.878Z,7.95
2018-04-19T04:17:28.770Z,7.93
2018-04-19T04:18:28.510Z,8.06
2018-04-19T04:19:28.760Z,8.06
2018-04-19T04:20:28.485Z,8.06
2018-04-19T04:21:28.463Z,8.13
2018-04-19T04:22:28.458Z,8.13
2018-04-19T04:23:28.703Z,8.16
2018-04-19T04:24:28.428Z,8.19
2018-04-19T04:25:28.429Z,8.21
2018-04-19T04:26:28.662Z,8.21
2018-04-19T04:27:28.653Z,8.17
2018-04-19T04:28:28.641Z,8.28
2018-04-19T04:29:28.388Z,8.26
2018-04-19T04:30:28.618Z,8.29
2018-04-19T04:31:28.605Z,8.35
2018-04-19T04:32:28.598Z,8.42
2018-04-19T04:33:28.590Z,8.43
2018-04-19T04:34:28.059Z,8.43
2018-04-19T04:35:28.570Z,8.44
2018-04-19T04:36:28.553Z,8.49
2018-04-19T04:37:28.535Z,8.52
2018-04-19T04:38:28.532Z,8.57
2018-04-19T04:39:28.307Z,8.5
2018-04-19T04:40:28.246Z,8.6
2018-04-19T04:41:28.495Z,8.67
2018-04-19T04:42:28.230Z,8.65
2018-04-19T04:43:28.482Z,8.71
2018-04-19T04:44:28.460Z,8.77
2018-04-19T04:45:28.453Z,8.85
2018-04-19T04:46:28.180Z,8.89
2018-04-19T04:47:27.911Z,9
2018-04-19T04:48:28.162Z,9.03
2018-04-19T04:49:28.412Z,8.98
2018-04-19T04:50:27.874Z,9
2018-04-19T04:51:28.418Z,9.01
2018-04-19T04:52:28.368Z,8.95
2018-04-19T04:53:28.361Z,9.03
2018-04-19T04:54:28.345Z,9.09
2018-04-19T04:55:27.820Z,9.03
2018-04-19T04:56:28.066Z,9.04
2018-04-19T04:57:28.316Z,9.14
2018-04-19T04:58:28.320Z,9.19
2018-04-19T04:59:28.300Z,9.16
2018-04-19T05:00:28.291Z,9.21
2018-04-19T05:01:28.013Z,9.16
2018-04-19T05:02:28.259Z,9.39
2018-04-19T05:03:28.251Z,9.35
2018-04-19T05:04:27.723Z,9.27
2018-04-19T05:05:28.228Z,9.32
2018-04-19T05:06:28.215Z,9.48
2018-04-19T05:07:27.950Z,9.52
2018-04-19T05:08:27.948Z,9.48
2018-04-19T05:09:28.188Z,9.47
2018-04-19T05:10:27.917Z,9.5
2018-04-19T05:11:27.924Z,9.48
2018-04-19T05:12:28.159Z,9.56
2018-04-19T05:13:28.145Z,9.64
2018-04-19T05:14:28.328Z,9.75
2018-04-19T05:15:27.608Z,9.67
2018-04-19T05:16:28.111Z,9.78
2018-04-19T05:17:28.105Z,9.82
2018-04-19T05:18:28.091Z,9.89
2018-04-19T05:19:27.822Z,9.93
2018-04-19T05:20:28.223Z,10.05
2018-04-19T05:21:28.059Z,10.02
2018-04-19T05:22:27.794Z,9.99
2018-04-19T05:23:27.524Z,10.08
2018-04-19T05:24:27.771Z,10.17
2018-04-19T05:25:27.772Z,10.23
2018-04-19T05:26:27.495Z,10.25
2018-04-19T05:27:27.740Z,10.25
2018-04-19T05:28:27.990Z,10.29
2018-04-19T05:29:27.720Z,10.38
2018-04-19T05:30:27.715Z,10.39
2018-04-19T05:31:27.447Z,10.44
2018-04-19T05:32:27.947Z,10.46
2018-04-19T05:33:27.718Z,10.47
2018-04-19T05:34:27.978Z,10.57
2018-04-19T05:35:27.405Z,10.65
2018-04-19T05:36:27.652Z,10.7
2018-04-19T05:37:27.901Z,10.57
2018-04-19T05:38:27.898Z,10.59
2018-04-19T05:39:27.619Z,10.66
2018-04-19T05:40:27.618Z,10.7
2018-04-19T05:41:27.867Z,10.75
2018-04-19T05:42:27.863Z,10.83
2018-04-19T05:43:27.843Z,10.83
2018-04-19T05:44:27.625Z,10.94
2018-04-19T05:45:27.563Z,10.87
2018-04-19T05:46:27.812Z,11.02
2018-04-19T05:47:27.287Z,11.03
2018-04-19T05:48:27.792Z,11.08
2018-04-19T05:49:27.834Z,11.12
2018-04-19T05:50:27.799Z,11.16
2018-04-19T05:51:27.763Z,11.21
2018-04-19T05:52:27.775Z,11.3
2018-04-19T05:53:27.751Z,11.3
2018-04-19T05:54:28.014Z,11.35
2018-04-19T05:55:27.734Z,11.41
2018-04-19T05:56:27.462Z,11.46
2018-04-19T05:57:27.711Z,11.45
2018-04-19T05:58:27.707Z,11.49
2018-04-19T05:59:27.434Z,11.53
2018-04-19T06:00:27.679Z,11.56
2018-04-19T06:01:27.420Z,11.63
2018-04-19T06:02:27.669Z,11.66
2018-04-19T06:03:27.659Z,11.64
2018-04-19T06:04:27.387Z,11.67
2018-04-19T06:05:27.380Z,11.63
2018-04-19T06:06:27.116Z,11.75
2018-04-19T06:07:27.626Z,11.86
2018-04-19T06:08:27.357Z,11.82
2018-04-19T06:09:27.348Z,11.86
2018-04-19T06:10:27.336Z,11.82
2018-04-19T06:11:27.584Z,11.89
2018-04-19T06:12:27.574Z,12
2018-04-19T06:13:27.315Z,12.03
2018-04-19T06:14:27.303Z,12
2018-04-19T06:15:27.551Z,11.97
2018-04-19T06:16:27.288Z,12.08
2018-04-19T06:17:27.280Z,12.07
2018-04-19T06:18:27.528Z,12.11
2018-04-19T06:19:27.265Z,12.1
2018-04-19T06:20:27.509Z,12.13
2018-04-19T06:21:27.514Z,12.15
2018-04-19T06:22:27.497Z,12.2
2018-04-19T06:23:26.968Z,12.28
2018-04-19T06:24:27.221Z,12.26
2018-04-19T06:25:27.468Z,12.29
2018-04-19T06:26:27.204Z,12.31
2018-04-19T06:27:27.197Z,12.31
2018-04-19T06:28:27.211Z,12.28
2018-04-19T06:29:26.931Z,12.31
2018-04-19T06:30:27.549Z,12.41
2018-04-19T06:31:27.423Z,12.43
2018-04-19T06:32:27.419Z,12.53
2018-04-19T06:33:27.403Z,12.61
2018-04-19T06:34:27.157Z,12.59
2018-04-19T06:35:27.392Z,12.69
2018-04-19T06:36:27.426Z,12.81
2018-04-19T06:37:27.371Z,12.92
2018-04-19T06:38:26.848Z,13.02
2018-04-19T06:39:27.368Z,13.45
2018-04-19T06:40:27.089Z,13.81
2018-04-19T06:41:27.086Z,14.46
2018-04-19T06:42:27.078Z,15.22
2018-04-19T06:43:27.329Z,15.99
2018-04-19T06:44:27.335Z,16.54
2018-04-19T06:45:27.315Z,17.07
2018-04-19T06:46:27.051Z,17.77
2018-04-19T06:47:27.045Z,18.44
2018-04-19T06:48:27.296Z,19.17
2018-04-19T06:49:27.318Z,19.89
2018-04-19T06:50:27.024Z,20.54
2018-04-19T06:51:26.763Z,21.23
2018-04-19T06:52:27.016Z,22.04
2018-04-19T06:53:27.019Z,22.61
2018-04-19T06:54:27.266Z,23.35
2018-04-19T06:55:27.001Z,23.78
2018-04-19T06:56:27.007Z,24.14
2018-04-19T06:57:26.997Z,24.45
2018-04-19T06:58:27.247Z,24.85
2018-04-19T06:59:26.990Z,25.08
2018-04-19T07:00:27.246Z,25.37
2018-04-19T07:01:26.728Z,25.48
2018-04-19T07:02:26.985Z,25.85
2018-04-19T07:03:26.980Z,26.24
2018-04-19T07:04:26.981Z,26.47
2018-04-19T07:05:27.239Z,26.61
2018-04-19T07:06:26.988Z,26.6
2018-04-19T07:07:27.245Z,26.56
2018-04-19T07:08:27.246Z,26.54
2018-04-19T07:09:27.247Z,26.5
2018-04-19T07:10:27.239Z,26.71
2018-04-19T07:11:27.239Z,26.75
2018-04-19T07:12:27.254Z,26.87
2018-04-19T07:13:27.250Z,27.13
2018-04-19T07:14:27.256Z,27.46
2018-04-19T07:15:27.245Z,27.64
2018-04-19T07:16:27.249Z,27.86
2018-04-19T07:17:27.251Z,28.06
2018-04-19T07:18:27.252Z,28.27
2018-04-19T07:19:26.736Z,28.43
2018-04-19T07:20:27.253Z,28.68
2018-04-19T07:21:26.996Z,28.78
2018-04-19T07:22:26.996Z,28.78
2018-04-19T07:23:27.001Z,28.63
2018-04-19T07:24:27.004Z,28.7
2018-04-19T07:25:27.264Z,28.67
2018-04-19T07:26:27.263Z,28.72
2018-04-19T07:27:27.276Z,28.7
2018-04-19T07:28:27.274Z,28.51
2018-04-19T07:29:27.279Z,28.48
2018-04-19T07:30:27.017Z,28.49
2018-04-19T07:31:27.021Z,28.02
2018-04-19T07:32:27.365Z,27.55
2018-04-19T07:33:27.021Z,27.21
2018-04-19T07:34:27.304Z,26.89
2018-04-19T07:35:27.285Z,26.69
2018-04-19T07:36:27.286Z,26.32
2018-04-19T07:37:27.283Z,26
2018-04-19T07:38:27.286Z,25.76
2018-04-19T07:39:27.287Z,25.51
2018-04-19T07:40:27.291Z,25.17
2018-04-19T07:41:27.289Z,24.74
2018-04-19T07:42:27.028Z,24.39
2018-04-19T07:43:27.288Z,23.97
2018-04-19T07:44:26.772Z,23.52
2018-04-19T07:45:27.294Z,23.1
2018-04-19T07:46:27.043Z,22.71
2018-04-19T07:47:26.778Z,22.29
2018-04-19T07:48:27.288Z,22
2018-04-19T07:49:27.037Z,21.78
2018-04-19T07:50:27.292Z,21.48
2018-04-19T07:51:27.331Z,21.22
2018-04-19T07:52:27.031Z,21.15
2018-04-19T07:53:27.294Z,20.86
2018-04-19T07:54:27.041Z,20.74
2018-04-19T07:55:27.034Z,20.6
2018-04-19T07:56:27.295Z,20.53
2018-04-19T07:57:27.295Z,20.44
2018-04-19T07:58:27.032Z,20.29
2018-04-19T07:59:27.288Z,20.25
2018-04-19T08:00:27.291Z,20.15
2018-04-19T08:01:27.032Z,20.16
2018-04-19T08:02:27.307Z,20.08
2018-04-19T08:03:27.437Z,19.92
2018-04-19T08:04:27.328Z,20.01
2018-04-19T08:05:27.390Z,20.05
2018-04-19T08:06:27.299Z,20.05
2018-04-19T08:07:27.028Z,20.02
2018-04-19T08:08:27.027Z,20.05
2018-04-19T08:09:27.026Z,20.07
2018-04-19T08:10:27.289Z,19.98
2018-04-19T08:11:27.175Z,20.08
2018-04-19T08:12:27.026Z,20.11
2018-04-19T08:13:27.029Z,20.16
2018-04-19T08:14:27.022Z,20.16
2018-04-19T08:15:26.763Z,20.11
2018-04-19T08:16:26.766Z,20.2
2018-04-19T08:17:27.017Z,20.16
2018-04-19T08:18:27.015Z,20.16
2018-04-19T08:19:27.327Z,20.22
2018-04-19T08:20:27.274Z,20.27
2018-04-19T08:21:27.018Z,20.37
2018-04-19T08:22:27.014Z,20.42
2018-04-19T08:23:27.013Z,20.41
2018-04-19T08:24:27.028Z,20.53
2018-04-19T08:25:27.008Z,20.63
2018-04-19T08:26:27.271Z,20.53
2018-04-19T08:27:27.009Z,20.42
2018-04-19T08:28:27.269Z,20.44
2018-04-19T08:29:27.009Z,20.44
2018-04-19T08:30:27.271Z,20.38
2018-04-19T08:31:27.004Z,20.44
2018-04-19T08:32:27.256Z,20.44
2018-04-19T08:33:27.051Z,20.44
2018-04-19T08:34:27.257Z,20.48
2018-04-19T08:35:27.124Z,20.41
2018-04-19T08:36:27.252Z,20.41
2018-04-19T08:37:27.283Z,20.38
2018-04-19T08:38:27.249Z,20.46
2018-04-19T08:39:26.741Z,20.46
2018-04-19T08:40:26.991Z,20.41
2018-04-19T08:41:26.994Z,20.44
2018-04-19T08:42:27.245Z,20.4
2018-04-19T08:43:27.244Z,20.4
2018-04-19T08:44:26.735Z,20.4
2018-04-19T08:45:26.988Z,20.37
2018-04-19T08:46:27.242Z,20.29
2018-04-19T08:47:27.242Z,20.25
2018-04-19T08:48:26.987Z,20.25
2018-04-19T08:49:26.978Z,20.29
2018-04-19T08:50:27.234Z,20.46
2018-04-19T08:51:27.238Z,20.38
2018-04-19T08:52:27.238Z,20.4
2018-04-19T08:53:27.241Z,20.38
2018-04-19T08:54:27.231Z,20.38
2018-04-19T08:55:27.230Z,20.44
2018-04-19T08:56:27.072Z,20.6
2018-04-19T08:57:27.228Z,20.54
2018-04-19T08:58:26.972Z,20.64
2018-04-19T08:59:26.969Z,20.71
2018-04-19T09:00:26.967Z,20.66
2018-04-19T09:01:27.225Z,20.68
2018-04-19T09:02:27.219Z,20.75
2018-04-19T09:03:26.706Z,20.75
2018-04-19T09:04:26.963Z,20.76
2018-04-19T09:05:26.964Z,20.74
2018-04-19T09:06:26.960Z,20.76
2018-04-19T09:07:26.971Z,20.78
2018-04-19T09:08:27.223Z,20.79
2018-04-19T09:09:27.217Z,20.9
2018-04-19T09:10:26.955Z,20.93
2018-04-19T09:11:27.217Z,21.04
2018-04-19T09:12:26.694Z,21.04
2018-04-19T09:13:27.298Z,21.13
2018-04-19T09:14:27.220Z,20.98
2018-04-19T09:15:27.207Z,21.03
2018-04-19T09:16:27.211Z,21
2018-04-19T09:17:27.205Z,21.13
2018-04-19T09:18:27.208Z,21.09
2018-04-19T09:19:26.965Z,21.16
2018-04-19T09:20:27.199Z,21.15
2018-04-19T09:21:27.199Z,21.21
2018-04-19T09:22:27.263Z,21.15
2018-04-19T09:23:27.197Z,21.16
2018-04-19T09:24:26.953Z,21.22
2018-04-19T09:25:26.937Z,21.25
2018-04-19T09:26:26.682Z,21.22
2018-04-19T09:27:27.191Z,21.33
2018-04-19T09:28:27.194Z,21.31
2018-04-19T09:29:26.932Z,21.28
2018-04-19T09:30:27.196Z,21.3
2018-04-19T09:31:26.933Z,21.23
2018-04-19T09:32:27.195Z,21.27
2018-04-19T09:33:27.195Z,21.34
2018-04-19T09:34:26.931Z,21.41
2018-04-19T09:35:26.930Z,21.33
2018-04-19T09:36:27.199Z,21.36
2018-04-19T09:37:27.187Z,21.38
2018-04-19T09:38:26.925Z,21.41
2018-04-19T09:39:26.934Z,21.43
2018-04-19T09:40:26.925Z,21.37
2018-04-19T09:41:27.181Z,21.51
2018-04-19T09:42:27.187Z,21.37
2018-04-19T09:43:27.185Z,21.34
2018-04-19T09:44:27.183Z,21.46
2018-04-19T09:45:26.922Z,21.52
2018-04-19T09:46:27.183Z,21.51
2018-04-19T09:47:27.187Z,21.66
2018-04-19T09:48:26.918Z,21.64
2018-04-19T09:49:26.662Z,21.59
2018-04-19T09:50:27.175Z,21.53
2018-04-19T09:51:27.173Z,21.46
2018-04-19T09:52:26.915Z,21.49
2018-04-19T09:53:26.918Z,21.53
2018-04-19T09:54:26.910Z,21.64
2018-04-19T09:55:27.216Z,21.71
2018-04-19T09:56:27.173Z,21.71
2018-04-19T09:57:27.181Z,21.76
2018-04-19T09:58:26.651Z,21.78
2018-04-19T09:59:26.908Z,21.74
2018-04-19T10:00:26.651Z,21.8
2018-04-19T10:01:27.164Z,21.77
2018-04-19T10:02:27.417Z,21.82
2018-04-19T10:03:27.314Z,21.94
2018-04-19T10:04:26.910Z,21.82
2018-04-19T10:05:27.161Z,21.92
2018-04-19T10:06:27.163Z,21.92
2018-04-19T10:07:26.905Z,21.85
2018-04-19T10:08:26.903Z,21.78
2018-04-19T10:09:26.904Z,21.83
2018-04-19T10:10:27.275Z,21.82
2018-04-19T10:11:27.163Z,21.9
2018-04-19T10:12:27.157Z,21.99
2018-04-19T10:13:27.157Z,22.11
2018-04-19T10:14:27.162Z,22.11
2018-04-19T10:15:26.902Z,22.08
2018-04-19T10:16:26.904Z,22.16
2018-04-19T10:17:27.159Z,22.08
2018-04-19T10:18:26.898Z,22.05
2018-04-19T10:19:26.898Z,22.04
2018-04-19T10:20:27.160Z,22.05
2018-04-19T10:21:27.494Z,22.08
2018-04-19T10:22:27.160Z,22.11
2018-04-19T10:23:27.160Z,22.09
2018-04-19T10:24:26.897Z,22
2018-04-19T10:25:26.904Z,22.16
2018-04-19T10:26:27.154Z,22.16
2018-04-19T10:27:26.958Z,22.05
2018-04-19T10:28:26.642Z,22.11
2018-04-19T10:29:26.899Z,22.02
2018-04-19T10:30:27.159Z,22.08
2018-04-19T10:31:26.639Z,22.18
2018-04-19T10:32:26.893Z,22.11
2018-04-19T10:33:27.156Z,22.14
2018-04-19T10:34:26.908Z,22.14
2018-04-19T10:35:26.891Z,22.15
2018-04-19T10:36:27.149Z,22.14
2018-04-19T10:37:26.896Z,22.24
2018-04-19T10:38:26.904Z,22.12
2018-04-19T10:39:27.149Z,22.26
2018-04-19T10:40:26.894Z,22.29
2018-04-19T10:41:27.158Z,22.33
2018-04-19T10:42:26.895Z,22.38
2018-04-19T10:43:27.169Z,22.42
2018-04-19T10:44:26.632Z,22.29
2018-04-19T10:45:26.895Z,22.41
2018-04-19T10:46:27.151Z,22.36
2018-04-19T10:47:26.890Z,22.31
2018-04-19T10:48:27.158Z,22.36
2018-04-19T10:49:26.894Z,22.3
2018-04-19T10:50:26.892Z,22.36
2018-04-19T10:51:26.897Z,22.38
2018-04-19T10:52:26.910Z,22.38
2018-04-19T10:53:27.150Z,22.36
2018-04-19T10:54:26.632Z,22.42
2018-04-19T10:55:26.888Z,22.46
2018-04-19T10:56:27.144Z,22.44
2018-04-19T10:57:26.890Z,22.49
2018-04-19T10:58:27.158Z,22.42
2018-04-19T10:59:26.888Z,22.42
2018-04-19T11:00:27.150Z,22.42
2018-04-19T11:01:26.894Z,22.49
2018-04-19T11:02:26.888Z,22.54
2018-04-19T11:03:26.890Z,22.46
2018-04-19T11:04:26.894Z,22.42
2018-04-19T11:05:26.892Z,22.42
2018-04-19T11:06:26.886Z,22.33
2018-04-19T11:07:27.146Z,22.34
2018-04-19T11:08:27.146Z,22.36
2018-04-19T11:09:27.157Z,22.42
2018-04-19T11:10:27.146Z,22.45
2018-04-19T11:11:26.888Z,22.44
2018-04-19T11:12:26.888Z,22.48
2018-04-19T11:13:27.147Z,22.48
2018-04-19T11:14:27.148Z,22.51
2018-04-19T11:15:27.147Z,22.55
2018-04-19T11:16:26.889Z,22.66
2018-04-19T11:17:27.152Z,22.66
2018-04-19T11:18:26.891Z,22.67
2018-04-19T11:19:26.889Z,22.76
2018-04-19T11:20:26.888Z,22.63
2018-04-19T11:21:27.157Z,22.66
2018-04-19T11:22:26.921Z,22.67
2018-04-19T11:23:27.142Z,22.64
2018-04-19T11:24:27.145Z,22.73
2018-04-19T11:25:27.157Z,22.76
2018-04-19T11:26:27.149Z,22.81
2018-04-19T11:27:26.888Z,22.71
2018-04-19T11:28:27.150Z,22.71
2018-04-19T11:29:26.895Z,22.67
2018-04-19T11:30:27.148Z,22.67
2018-04-19T11:31:27.145Z,22.66
2018-04-19T11:32:27.148Z,22.63
2018-04-19T11:33:27.153Z,22.57
2018-04-19T11:34:27.155Z,22.79
2018-04-19T11:35:27.146Z,22.69
2018-04-19T11:36:27.150Z,22.79
2018-04-19T11:37:27.149Z,22.76
2018-04-19T11:38:26.898Z,22.7
2018-04-19T11:39:27.148Z,22.79
2018-04-19T11:40:26.636Z,22.78
2018-04-19T11:41:26.891Z,22.73
2018-04-19T11:42:26.895Z,22.78
2018-04-19T11:43:27.155Z,22.76
2018-04-19T11:44:27.014Z,22.73
2018-04-19T11:45:27.151Z,22.75
2018-04-19T11:46:26.904Z,22.84
2018-04-19T11:47:26.896Z,22.81
2018-04-19T11:48:27.161Z,22.82
2018-04-19T11:49:26.897Z,22.81
2018-04-19T11:50:26.897Z,22.85
2018-04-19T11:51:27.157Z,22.89
2018-04-19T11:52:27.156Z,22.75
2018-04-19T11:53:27.157Z,22.73
2018-04-19T11:54:27.157Z,22.78
2018-04-19T11:55:27.160Z,22.64
2018-04-19T11:56:27.157Z,22.63
2018-04-19T11:57:27.158Z,22.64
2018-04-19T11:58:27.164Z,22.73
2018-04-19T11:59:26.903Z,22.7
2018-04-19T12:00:26.646Z,22.7
2018-04-19T12:01:27.162Z,22.78
2018-04-19T12:02:27.163Z,22.76
2018-04-19T12:03:27.167Z,22.7
2018-04-19T12:04:26.645Z,22.79
2018-04-19T12:05:27.168Z,22.78
2018-04-19T12:06:26.911Z,22.81
2018-04-19T12:07:26.645Z,22.81
2018-04-19T12:08:26.910Z,22.79
2018-04-19T12:09:27.164Z,22.78
2018-04-19T12:10:26.649Z,22.73
2018-04-19T12:11:27.165Z,22.79
2018-04-19T12:12:26.655Z,22.81
2018-04-19T12:13:26.934Z,22.75
2018-04-19T12:14:26.910Z,22.79
2018-04-19T12:15:27.183Z,22.84
2018-04-19T12:16:27.172Z,22.89
2018-04-19T12:17:27.165Z,22.88
2018-04-19T12:18:26.909Z,22.88
2018-04-19T12:19:26.913Z,22.88
2018-04-19T12:20:27.172Z,22.99
2018-04-19T12:21:26.653Z,23.04
2018-04-19T12:22:27.168Z,23.01
2018-04-19T12:23:27.169Z,23
2018-04-19T12:24:27.179Z,22.91
2018-04-19T12:25:26.914Z,22.88
2018-04-19T12:26:26.914Z,22.86
2018-04-19T12:27:26.914Z,22.86
2018-04-19T12:28:27.174Z,22.92
2018-04-19T12:29:27.178Z,22.86
2018-04-19T12:30:27.172Z,22.94
2018-04-19T12:31:26.920Z,22.97
2018-04-19T12:32:27.180Z,22.91
2018-04-19T12:33:26.917Z,22.97
2018-04-19T12:34:26.919Z,22.88
2018-04-19T12:35:26.920Z,22.91
2018-04-19T12:36:27.179Z,23.03
2018-04-19T12:37:27.221Z,22.97
2018-04-19T12:38:27.180Z,23.04
2018-04-19T12:39:26.922Z,23
2018-04-19T12:40:26.925Z,23.1
2018-04-19T12:41:27.184Z,23.12
2018-04-19T12:42:27.194Z,23.16
2018-04-19T12:43:27.303Z,23.15
2018-04-19T12:44:27.181Z,23.14
2018-04-19T12:45:27.185Z,23.19
2018-04-19T12:46:26.925Z,23.22
2018-04-19T12:47:26.670Z,23.22
2018-04-19T12:48:26.928Z,23.19
2018-04-19T12:49:27.193Z,23.16
2018-04-19T12:50:27.191Z,23.12
2018-04-19T12:51:27.187Z,23.1
2018-04-19T12:52:27.196Z,23.06
2018-04-19T12:53:27.189Z,23.15
2018-04-19T12:54:27.189Z,23.15
2018-04-19T12:55:27.195Z,23.18
2018-04-19T12:56:26.938Z,23.12
2018-04-19T12:57:27.195Z,23.14
2018-04-19T12:58:26.937Z,23.18
2018-04-19T12:59:27.227Z,23.15
2018-04-19T13:00:26.939Z,23.09
2018-04-19T13:01:27.200Z,22.99
2018-04-19T13:02:27.197Z,22.96
2018-04-19T13:03:27.197Z,23.04
2018-04-19T13:04:27.227Z,22.99
2018-04-19T13:05:26.941Z,23.06
2018-04-19T13:06:27.221Z,23.01